createdAt,value
2018-11-28T00:01:54.341Z,15.93
2018-11-28T00:06:47.727Z,16.33
2018-11-28T00:11:41.103Z,14.87
2018-11-28T00:16:34.540Z,15.00
2018-11-28T00:21:27.928Z,14.97
2018-11-28T00:26:21.340Z,15.37
2018-11-28T00:31:14.718Z,16.87
2018-11-28T00:36:08.101Z,15.30
2018-11-28T00:41:01.502Z,14.97
2018-11-28T00:45:54.859Z,15.47
2018-11-28T00:50:48.262Z,14.70
2018-11-28T00:55:41.660Z,13.73
2018-11-28T01:00:35.058Z,14.47
2018-11-28T01:05:28.459Z,14.07
2018-11-28T01:10:22.512Z,14.33
2018-11-28T01:15:16.519Z,14.23
2018-11-28T01:20:16.871Z,14.20
2018-11-28T01:25:13.830Z,12.90
2018-11-28T01:30:08.346Z,13.47
2018-11-28T01:35:01.759Z,12.43
2018-11-28T01:39:55.218Z,12.90
2018-11-28T01:44:48.611Z,12.07
2018-11-28T01:49:41.989Z,12.37
2018-11-28T01:54:35.411Z,13.53
2018-11-28T02:05:34.833Z,12.37
2018-11-28T02:10:28.219Z,11.90
2018-11-28T02:15:24.425Z,11.90
2018-11-28T02:20:17.882Z,12.30
2018-11-28T02:25:14.671Z,12.73
2018-11-28T02:30:11.642Z,13.30
2018-11-28T02:35:06.010Z,11.90
2018-11-28T02:39:59.427Z,12.20
2018-11-28T02:44:52.791Z,12.53
2018-11-28T02:49:46.165Z,10.77
2018-11-28T02:54:39.554Z,12.47
2018-11-28T02:59:32.932Z,11.97
2018-11-28T03:04:26.314Z,11.00
2018-11-28T03:09:19.703Z,11.30
2018-11-28T03:14:13.091Z,10.43
2018-11-28T03:19:06.471Z,12.53
2018-11-28T03:23:59.880Z,10.73
2018-11-28T03:28:53.277Z,11.23
2018-11-28T03:33:46.652Z,10.77
2018-11-28T03:38:40.059Z,11.37
2018-11-28T03:43:33.442Z,10.70
2018-11-28T03:48:26.826Z,10.47
2018-11-28T03:53:20.202Z,11.77
2018-11-28T03:58:13.796Z,12.80
2018-11-28T04:03:07.215Z,12.07
2018-11-28T04:08:00.578Z,11.60
2018-11-28T04:12:53.986Z,11.67
2018-11-28T04:17:47.453Z,10.50
2018-11-28T04:22:40.851Z,11.50
2018-11-28T04:27:34.244Z,10.83
2018-11-28T04:32:27.649Z,9.30
2018-11-28T04:37:21.038Z,9.70
2018-11-28T04:42:14.411Z,11.33
2018-11-28T04:53:13.613Z,10.20
2018-11-28T04:58:06.980Z,10.87
2018-11-28T05:03:00.430Z,11.40
2018-11-28T05:07:54.124Z,9.57
2018-11-28T05:12:47.505Z,10.87
2018-11-28T05:17:40.875Z,9.97
2018-11-28T05:22:34.244Z,10.57
2018-11-28T05:27:27.725Z,9.77
2018-11-28T05:32:21.164Z,10.13
2018-11-28T05:37:14.531Z,9.60
2018-11-28T05:48:15.147Z,10.27
2018-11-28T05:53:07.186Z,9.43
2018-11-28T05:58:00.594Z,9.53
2018-11-28T06:02:53.966Z,9.53
2018-11-28T06:07:47.351Z,10.80
2018-11-28T06:12:40.725Z,10.63
2018-11-28T06:17:34.127Z,9.90
2018-11-28T06:22:27.528Z,9.50
2018-11-28T06:27:20.923Z,10.17
2018-11-28T06:32:14.308Z,9.83
2018-11-28T06:37:07.731Z,10.17
2018-11-28T06:42:01.165Z,9.30
2018-11-28T06:46:54.583Z,9.57
2018-11-28T06:51:47.975Z,9.00
2018-11-28T06:56:41.359Z,9.03
2018-11-28T07:01:34.740Z,8.60
2018-11-28T07:06:28.151Z,9.03
2018-11-28T07:11:21.571Z,9.30
2018-11-28T07:16:14.950Z,7.53
2018-11-28T07:21:08.375Z,8.60
2018-11-28T07:26:01.791Z,6.50
2018-11-28T07:37:01.243Z,7.53
2018-11-28T07:41:54.687Z,8.27
2018-11-28T07:46:48.081Z,7.37
2018-11-28T07:51:41.467Z,7.00
2018-11-28T07:56:34.877Z,6.23
2018-11-28T08:01:28.336Z,7.07
2018-11-28T08:06:21.701Z,7.80
2018-11-28T08:11:15.132Z,6.80
2018-11-28T08:16:08.481Z,6.37
2018-11-28T08:21:01.932Z,6.83
2018-11-28T08:25:55.331Z,7.27
2018-11-28T08:30:48.707Z,6.87
2018-11-28T08:35:42.149Z,6.73
2018-11-28T08:40:35.532Z,6.53
2018-11-28T08:45:28.919Z,6.80
2018-11-28T08:50:31.959Z,6.23
2018-11-28T08:55:25.364Z,6.80
2018-11-28T09:00:19.306Z,6.03
2018-11-28T09:05:13.074Z,6.73
2018-11-28T09:10:09.845Z,5.83
2018-11-28T09:15:03.740Z,6.60
2018-11-28T09:19:57.151Z,5.53
2018-11-28T09:24:50.533Z,7.83
2018-11-28T09:29:43.892Z,5.63
2018-11-28T09:34:37.308Z,5.50
2018-11-28T09:39:30.678Z,5.83
2018-11-28T09:44:24.053Z,5.40
2018-11-28T09:49:17.749Z,5.47
2018-11-28T09:54:10.985Z,5.83
2018-11-28T09:59:04.381Z,7.07
2018-11-28T10:03:57.777Z,6.07
2018-11-28T10:08:51.179Z,6.47
2018-11-28T10:13:44.574Z,5.63
2018-11-28T10:18:37.970Z,5.07
2018-11-28T10:23:31.344Z,6.27
2018-11-28T10:28:24.731Z,6.10
2018-11-28T10:33:18.113Z,6.47
2018-11-28T10:38:11.501Z,5.80
2018-11-28T10:43:05.389Z,5.60
2018-11-28T10:47:58.864Z,6.83
2018-11-28T10:52:52.260Z,6.13
2018-11-28T10:57:45.662Z,7.97
2018-11-28T11:02:57.042Z,8.87
2018-11-28T11:08:08.421Z,4.90
2018-11-28T11:13:19.720Z,6.07
2018-11-28T11:18:13.118Z,6.30
2018-11-28T11:23:08.319Z,4.97
2018-11-28T11:28:00.359Z,6.03
2018-11-28T11:32:53.799Z,7.07
2018-11-28T11:37:47.217Z,6.10
2018-11-28T11:42:40.595Z,5.70
2018-11-28T11:47:33.988Z,5.60
2018-11-28T11:52:27.621Z,5.30
2018-11-28T12:03:26.504Z,4.60
2018-11-28T12:08:20.107Z,6.00
2018-11-28T12:13:13.530Z,5.73
2018-11-28T12:18:06.921Z,5.27
2018-11-28T12:23:00.313Z,4.97
2018-11-28T12:27:54.623Z,6.80
2018-11-28T12:32:47.989Z,6.63
2018-11-28T12:37:41.462Z,4.77
2018-11-28T12:42:34.841Z,4.63
2018-11-28T12:47:28.200Z,5.00
2018-11-28T12:52:21.629Z,5.93
2018-11-28T12:57:15.011Z,5.33
2018-11-28T13:02:08.425Z,6.30
2018-11-28T13:07:01.847Z,3.93
2018-11-28T13:11:59.886Z,5.23
2018-11-28T13:16:48.633Z,5.10
2018-11-28T13:21:42.012Z,5.23
2018-11-28T13:26:35.402Z,4.63
2018-11-28T13:31:28.792Z,4.47
2018-11-28T13:36:22.725Z,5.20
2018-11-28T13:41:15.576Z,5.00
2018-11-28T13:46:08.967Z,4.60
2018-11-28T13:51:02.344Z,3.27
2018-11-28T13:56:57.388Z,4.20
2018-11-28T14:00:49.884Z,4.20
2018-11-28T14:05:43.339Z,4.87
2018-11-28T14:10:36.696Z,3.97
2018-11-28T14:15:30.082Z,4.43
2018-11-28T14:20:23.490Z,3.47
2018-11-28T14:25:16.896Z,4.67
2018-11-28T14:30:11.057Z,4.90
2018-11-28T14:35:04.903Z,4.80
2018-11-28T14:39:58.242Z,4.00
2018-11-28T14:44:51.651Z,3.37
2018-11-28T14:49:45.083Z,4.03
2018-11-28T14:54:38.485Z,4.40
2018-11-28T15:05:57.612Z,3.90
2018-11-28T15:10:56.002Z,4.43
2018-11-28T15:15:49.387Z,9.77
2018-11-28T15:20:42.776Z,3.57
2018-11-28T15:25:36.202Z,3.90
2018-11-28T15:30:29.649Z,3.63
2018-11-28T15:35:23.022Z,4.00
2018-11-28T15:40:16.413Z,5.80
2018-11-28T15:45:09.834Z,3.60
2018-11-28T15:50:03.659Z,4.27
2018-11-28T15:54:57.041Z,6.47
2018-11-28T15:59:50.439Z,4.43
2018-11-28T16:04:43.817Z,5.40
2018-11-28T16:09:55.145Z,2.83
2018-11-28T16:14:48.548Z,3.00
2018-11-28T16:19:41.978Z,3.43
2018-11-28T16:24:35.379Z,2.83
2018-11-28T16:29:28.806Z,3.70
2018-11-28T16:34:22.216Z,2.90
2018-11-28T16:39:15.593Z,2.63
2018-11-28T16:44:08.985Z,3.17
2018-11-28T16:49:02.436Z,3.13
2018-11-28T16:53:55.856Z,4.17
2018-11-28T16:58:49.234Z,3.83
2018-11-28T17:04:27.752Z,2.83
2018-11-28T17:09:21.136Z,2.90
2018-11-28T17:14:14.634Z,2.67
2018-11-28T17:19:08.019Z,3.10
2018-11-28T17:24:01.663Z,3.57
2018-11-28T17:28:55.063Z,3.17
2018-11-28T17:33:49.266Z,2.33
2018-11-28T17:38:42.660Z,3.10
2018-11-28T17:43:36.028Z,3.03
2018-11-28T17:48:29.443Z,3.00
2018-11-28T17:53:22.868Z,3.80
2018-11-28T17:58:16.331Z,3.50
2018-11-28T18:03:09.800Z,3.17
2018-11-28T18:08:03.599Z,3.40
2018-11-28T18:13:02.058Z,2.87
2018-11-28T18:17:55.932Z,3.10
2018-11-28T18:22:49.354Z,3.93
2018-11-28T18:27:42.749Z,2.87
2018-11-28T18:32:36.157Z,3.30
2018-11-28T18:37:29.638Z,3.50
2018-11-28T18:42:23.028Z,2.97
2018-11-28T18:47:16.427Z,6.47
2018-11-28T18:52:09.832Z,3.40
2018-11-28T18:57:03.735Z,3.47
2018-11-28T19:01:57.129Z,3.40
2018-11-28T19:12:56.425Z,3.03
2018-11-28T19:17:49.891Z,2.27
2018-11-28T19:22:45.351Z,2.17
2018-11-28T19:27:38.840Z,2.77
2018-11-28T19:32:32.247Z,2.60
2018-11-28T19:37:25.707Z,3.53
2018-11-28T19:42:19.127Z,2.93
2018-11-28T19:47:12.538Z,2.50
2018-11-28T19:52:06.041Z,2.67
2018-11-28T19:56:59.439Z,3.40
2018-11-28T20:01:52.859Z,2.77
2018-11-28T20:06:46.262Z,2.33
2018-11-28T20:11:39.663Z,3.17
2018-11-28T20:16:33.072Z,3.07
2018-11-28T20:21:26.518Z,2.70
2018-11-28T20:26:19.979Z,3.10
2018-11-28T20:31:13.472Z,2.93
2018-11-28T20:36:06.875Z,2.10
2018-11-28T20:41:00.250Z,1.93
2018-11-28T20:45:53.679Z,3.00
2018-11-28T20:50:47.150Z,3.80
2018-11-28T20:55:40.561Z,2.80
2018-11-28T21:00:34.063Z,3.50
2018-11-28T21:05:28.174Z,2.67
2018-11-28T21:10:37.544Z,2.70
2018-11-28T21:15:30.961Z,2.00
2018-11-28T21:20:24.358Z,3.27
2018-11-28T21:25:17.784Z,4.03
2018-11-28T21:30:11.812Z,2.27
2018-11-28T21:35:06.607Z,2.83
2018-11-28T21:39:59.976Z,2.10
2018-11-28T21:44:53.375Z,3.60
2018-11-28T21:49:46.794Z,2.13
2018-11-28T21:54:40.273Z,2.93
2018-11-28T21:59:33.676Z,2.23
2018-11-28T22:04:27.087Z,4.67
2018-11-28T22:09:20.484Z,4.07
2018-11-28T22:14:13.884Z,2.50
2018-11-28T22:19:08.042Z,2.43
2018-11-28T22:24:01.443Z,3.93
2018-11-28T22:28:54.932Z,2.20
2018-11-28T22:33:48.343Z,3.13
2018-11-28T22:38:41.828Z,2.90
2018-11-28T22:43:35.219Z,2.10
2018-11-28T22:48:28.612Z,1.93
2018-11-28T22:53:22.009Z,2.13
2018-11-28T22:58:15.416Z,2.47
2018-11-28T23:03:09.757Z,2.63
2018-11-28T23:08:03.693Z,4.87
2018-11-28T23:12:57.089Z,2.33
2018-11-28T23:17:54.993Z,2.70
2018-11-28T23:22:43.904Z,2.60
2018-11-28T23:27:37.373Z,2.33
2018-11-28T23:32:30.810Z,2.83
2018-11-28T23:37:24.224Z,3.40
2018-11-28T23:42:17.729Z,3.10
2018-11-28T23:47:11.039Z,3.00
2018-11-28T23:52:04.472Z,2.73
2018-11-28T23:56:57.868Z,3.83
